Bellefountain, Indiana
Current Conditions -  °F | °C
As of 2:53 PM on Wednesday 26 Nov 2014 (Local Time) from KMIE Reporting Station
Overcast Overcast  
Wind Chill: 29°   Ceiling: 1800
Heat Index: 29°   Visibility: 10mi
Dew Point: 22°   Wind: 3mph
Humidity: 75%   Direction: 90°E
Pressure: 30.07"   Gusts: NA
Location:  40.4312°N, 85.0058°W
Report Text: KMIE 261953Z 09003KT 10SM OVC018 M02/M06 A3007 RMK AO2 SLP189 T10171056
Loading
Personal Weather Stations






























Interactive Weather Map New forecast layout! Learn more

10-Day Weather Forecast

Advertisements
Track Severe Weather on mobile